sensor_id;sensor_type;location;lat;lon;timestamp;temperature;humidity
13697;DHT22;6920;50.080;8.226;2023-03-14T00:02:08;11.10;99.90
13697;DHT22;6920;50.080;8.226;2023-03-14T00:04:35;11.00;99.90
13697;DHT22;6920;50.080;8.226;2023-03-14T00:07:02;11.00;99.90
13697;DHT22;6920;50.080;8.226;2023-03-14T00:09:29;11.00;99.90
13697;DHT22;6920;50.080;8.226;2023-03-14T00:11:56;11.00;99.90
13697;DHT22;6920;50.080;8.226;2023-03-14T00:14:25;12.10;99.90
13697;DHT22;6920;50.080;8.226;2023-03-14T00:16:52;11.00;99.90
13697;DHT22;6920;50.080;8.226;2023-03-14T00:19:19;11.00;99.90
13697;DHT22;6920;50.080;8.226;2023-03-14T00:21:46;11.00;99.90
13697;DHT22;6920;50.080;8.226;2023-03-14T00:24:13;11.10;99.90
13697;DHT22;6920;50.080;8.226;2023-03-14T00:26:40;11.10;99.90
13697;DHT22;6920;50.080;8.226;2023-03-14T00:29:07;11.00;99.90
13697;DHT22;6920;50.080;8.226;2023-03-14T00:31:36;11.00;99.90
13697;DHT22;6920;50.080;8.226;2023-03-14T00:34:05;11.00;99.90
13697;DHT22;6920;50.080;8.226;2023-03-14T00:36:32;11.00;99.90
13697;DHT22;6920;50.080;8.226;2023-03-14T00:38:59;11.00;99.90
13697;DHT22;6920;50.080;8.226;2023-03-14T00:41:26;11.00;99.90
13697;DHT22;6920;50.080;8.226;2023-03-14T00:43:54;11.00;99.90
13697;DHT22;6920;50.080;8.226;2023-03-14T00:46:21;11.00;99.90
13697;DHT22;6920;50.080;8.226;2023-03-14T00:48:49;11.10;99.90
13697;DHT22;6920;50.080;8.226;2023-03-14T00:51:17;11.10;99.90
13697;DHT22;6920;50.080;8.226;2023-03-14T00:53:44;11.10;99.90
13697;DHT22;6920;50.080;8.226;2023-03-14T00:56:13;11.10;99.90
13697;DHT22;6920;50.080;8.226;2023-03-14T00:58:40;11.10;99.90
13697;DHT22;6920;50.080;8.226;2023-03-14T01:01:08;11.00;99.90
13697;DHT22;6920;50.080;8.226;2023-03-14T01:03:36;11.00;99.90
13697;DHT22;6920;50.080;8.226;2023-03-14T01:06:09;11.00;99.90
13697;DHT22;6920;50.080;8.226;2023-03-14T01:08:37;11.00;99.90
13697;DHT22;6920;50.080;8.226;2023-03-14T01:11:08;11.00;99.90
13697;DHT22;6920;50.080;8.226;2023-03-14T01:13:35;11.00;99.90
13697;DHT22;6920;50.080;8.226;2023-03-14T01:16:04;11.00;99.90
13697;DHT22;6920;50.080;8.226;2023-03-14T01:18:32;11.00;99.90
13697;DHT22;6920;50.080;8.226;2023-03-14T01:21:02;11.00;99.90
13697;DHT22;6920;50.080;8.226;2023-03-14T01:23:31;11.00;99.90
13697;DHT22;6920;50.080;8.226;2023-03-14T01:25:58;11.00;99.90
13697;DHT22;6920;50.080;8.226;2023-03-14T01:28:25;11.00;99.90
13697;DHT22;6920;50.080;8.226;2023-03-14T01:30:52;11.00;99.90
13697;DHT22;6920;50.080;8.226;2023-03-14T01:33:19;11.00;99.90
13697;DHT22;6920;50.080;8.226;2023-03-14T01:35:50;11.00;99.90
13697;DHT22;6920;50.080;8.226;2023-03-14T01:38:18;11.10;99.90
13697;DHT22;6920;50.080;8.226;2023-03-14T01:40:46;11.00;99.90
13697;DHT22;6920;50.080;8.226;2023-03-14T01:43:15;10.90;99.90
13697;DHT22;6920;50.080;8.226;2023-03-14T01:48:50;11.00;99.90
13697;DHT22;6920;50.080;8.226;2023-03-14T01:51:23;11.00;99.90
13697;DHT22;6920;50.080;8.226;2023-03-14T01:53:54;11.00;99.90
13697;DHT22;6920;50.080;8.226;2023-03-14T01:56:25;11.00;99.90
13697;DHT22;6920;50.080;8.226;2023-03-14T01:58:52;11.00;99.90
13697;DHT22;6920;50.080;8.226;2023-03-14T02:01:21;11.00;99.90
13697;DHT22;6920;50.080;8.226;2023-03-14T02:03:53;10.90;99.90
13697;DHT22;6920;50.080;8.226;2023-03-14T02:06:24;10.90;99.90
13697;DHT22;6920;50.080;8.226;2023-03-14T02:08:52;10.90;99.90
13697;DHT22;6920;50.080;8.226;2023-03-14T02:11:20;10.90;99.90
13697;DHT22;6920;50.080;8.226;2023-03-14T02:13:50;10.90;99.90
13697;DHT22;6920;50.080;8.226;2023-03-14T02:16:17;10.90;99.90
13697;DHT22;6920;50.080;8.226;2023-03-14T02:18:44;10.90;99.90
13697;DHT22;6920;50.080;8.226;2023-03-14T02:21:17;10.90;99.90
13697;DHT22;6920;50.080;8.226;2023-03-14T02:23:51;10.90;99.90
13697;DHT22;6920;50.080;8.226;2023-03-14T02:26:23;10.80;99.90
13697;DHT22;6920;50.080;8.226;2023-03-14T02:28:55;10.80;99.90
13697;DHT22;6920;50.080;8.226;2023-03-14T02:31:22;10.80;99.90
13697;DHT22;6920;50.080;8.226;2023-03-14T02:33:50;10.80;99.90
13697;DHT22;6920;50.080;8.226;2023-03-14T02:36:19;10.80;99.90
13697;DHT22;6920;50.080;8.226;2023-03-14T02:38:50;10.90;99.90
13697;DHT22;6920;50.080;8.226;2023-03-14T02:41:18;10.90;99.90
13697;DHT22;6920;50.080;8.226;2023-03-14T02:43:46;10.80;99.90
13697;DHT22;6920;50.080;8.226;2023-03-14T02:46:17;10.90;99.90
13697;DHT22;6920;50.080;8.226;2023-03-14T02:48:48;10.80;99.90
13697;DHT22;6920;50.080;8.226;2023-03-14T02:51:16;10.90;99.90
13697;DHT22;6920;50.080;8.226;2023-03-14T02:53:43;10.90;99.90
13697;DHT22;6920;50.080;8.226;2023-03-14T02:56:11;10.90;99.90
13697;DHT22;6920;50.080;8.226;2023-03-14T02:58:38;10.90;99.90
13697;DHT22;6920;50.080;8.226;2023-03-14T03:01:06;10.90;99.90
13697;DHT22;6920;50.080;8.226;2023-03-14T03:03:34;10.90;99.90
13697;DHT22;6920;50.080;8.226;2023-03-14T03:06:02;10.90;99.90
13697;DHT22;6920;50.080;8.226;2023-03-14T03:08:29;10.90;99.90
13697;DHT22;6920;50.080;8.226;2023-03-14T03:10:58;11.00;99.90
13697;DHT22;6920;50.080;8.226;2023-03-14T03:13:25;11.00;99.90
13697;DHT22;6920;50.080;8.226;2023-03-14T03:15:53;10.90;99.90
13697;DHT22;6920;50.080;8.226;2023-03-14T03:18:20;10.90;99.90
13697;DHT22;6920;50.080;8.226;2023-03-14T03:20:48;10.90;99.90
13697;DHT22;6920;50.080;8.226;2023-03-14T03:23:16;10.90;99.90
13697;DHT22;6920;50.080;8.226;2023-03-14T03:25:48;10.80;99.90
13697;DHT22;6920;50.080;8.226;2023-03-14T03:28:15;10.80;99.90
13697;DHT22;6920;50.080;8.226;2023-03-14T03:30:43;10.80;99.90
13697;DHT22;6920;50.080;8.226;2023-03-14T03:33:11;10.70;99.90
13697;DHT22;6920;50.080;8.226;2023-03-14T03:35:43;10.70;99.90
13697;DHT22;6920;50.080;8.226;2023-03-14T03:38:11;10.70;99.90
13697;DHT22;6920;50.080;8.226;2023-03-14T03:40:39;10.70;99.90
13697;DHT22;6920;50.080;8.226;2023-03-14T03:43:06;10.70;99.90
13697;DHT22;6920;50.080;8.226;2023-03-14T03:45:33;10.70;99.90
13697;DHT22;6920;50.080;8.226;2023-03-14T03:48:00;10.70;99.90
13697;DHT22;6920;50.080;8.226;2023-03-14T03:50:27;10.70;99.90
13697;DHT22;6920;50.080;8.226;2023-03-14T03:52:54;10.60;99.90
13697;DHT22;6920;50.080;8.226;2023-03-14T03:55:22;10.70;99.90
13697;DHT22;6920;50.080;8.226;2023-03-14T03:57:52;10.60;99.90
13697;DHT22;6920;50.080;8.226;2023-03-14T04:00:19;10.70;99.90
13697;DHT22;6920;50.080;8.226;2023-03-14T04:02:49;10.70;99.90
13697;DHT22;6920;50.080;8.226;2023-03-14T04:05:17;10.70;99.90
13697;DHT22;6920;50.080;8.226;2023-03-14T04:07:45;10.70;99.90
13697;DHT22;6920;50.080;8.226;2023-03-14T04:10:14;10.70;99.90
13697;DHT22;6920;50.080;8.226;2023-03-14T04:12:43;10.70;99.90
13697;DHT22;6920;50.080;8.226;2023-03-14T04:15:10;10.70;99.90
13697;DHT22;6920;50.080;8.226;2023-03-14T04:17:37;10.70;99.90
13697;DHT22;6920;50.080;8.226;2023-03-14T04:20:07;10.70;99.90
13697;DHT22;6920;50.080;8.226;2023-03-14T04:22:36;10.70;99.90
13697;DHT22;6920;50.080;8.226;2023-03-14T04:25:06;10.70;99.90
13697;DHT22;6920;50.080;8.226;2023-03-14T04:27:33;10.70;99.90
13697;DHT22;6920;50.080;8.226;2023-03-14T04:30:03;10.60;99.90
13697;DHT22;6920;50.080;8.226;2023-03-14T04:32:32;10.60;99.90
13697;DHT22;6920;50.080;8.226;2023-03-14T04:34:59;10.60;99.90
13697;DHT22;6920;50.080;8.226;2023-03-14T04:37:27;10.70;99.90
13697;DHT22;6920;50.080;8.226;2023-03-14T04:39:54;10.60;99.90
13697;DHT22;6920;50.080;8.226;2023-03-14T04:42:25;10.70;99.90
13697;DHT22;6920;50.080;8.226;2023-03-14T04:44:55;10.60;99.90
13697;DHT22;6920;50.080;8.226;2023-03-14T04:47:25;10.70;99.90
13697;DHT22;6920;50.080;8.226;2023-03-14T04:49:52;10.70;99.90
13697;DHT22;6920;50.080;8.226;2023-03-14T04:52:20;10.70;99.90
13697;DHT22;6920;50.080;8.226;2023-03-14T04:54:47;10.70;99.90
13697;DHT22;6920;50.080;8.226;2023-03-14T04:57:16;10.70;99.90
13697;DHT22;6920;50.080;8.226;2023-03-14T04:59:44;10.70;99.90
13697;DHT22;6920;50.080;8.226;2023-03-14T05:02:12;10.70;99.90
13697;DHT22;6920;50.080;8.226;2023-03-14T05:04:41;10.60;99.90
13697;DHT22;6920;50.080;8.226;2023-03-14T05:07:09;10.60;99.90
13697;DHT22;6920;50.080;8.226;2023-03-14T05:09:36;10.60;99.90
13697;DHT22;6920;50.080;8.226;2023-03-14T05:12:04;10.60;99.90
13697;DHT22;6920;50.080;8.226;2023-03-14T05:14:32;10.60;99.90
13697;DHT22;6920;50.080;8.226;2023-03-14T05:17:01;10.60;99.90
13697;DHT22;6920;50.080;8.226;2023-03-14T05:19:29;10.50;99.90
13697;DHT22;6920;50.080;8.226;2023-03-14T05:21:59;10.50;99.90
13697;DHT22;6920;50.080;8.226;2023-03-14T05:24:26;10.60;99.90
13697;DHT22;6920;50.080;8.226;2023-03-14T05:26:56;10.60;99.90
13697;DHT22;6920;50.080;8.226;2023-03-14T05:29:24;10.50;99.90
13697;DHT22;6920;50.080;8.226;2023-03-14T05:31:52;10.60;99.90
13697;DHT22;6920;50.080;8.226;2023-03-14T05:34:20;10.60;99.90
13697;DHT22;6920;50.080;8.226;2023-03-14T05:36:49;10.60;99.90
13697;DHT22;6920;50.080;8.226;2023-03-14T05:39:23;10.50;99.90
13697;DHT22;6920;50.080;8.226;2023-03-14T05:41:51;10.50;99.90
13697;DHT22;6920;50.080;8.226;2023-03-14T05:44:22;10.50;99.90
13697;DHT22;6920;50.080;8.226;2023-03-14T05:46:49;10.50;99.90
13697;DHT22;6920;50.080;8.226;2023-03-14T05:49:18;10.50;99.90
13697;DHT22;6920;50.080;8.226;2023-03-14T05:51:48;10.50;99.90
13697;DHT22;6920;50.080;8.226;2023-03-14T05:54:15;10.50;99.90
13697;DHT22;6920;50.080;8.226;2023-03-14T05:56:53;10.50;99.90
13697;DHT22;6920;50.080;8.226;2023-03-14T05:59:49;10.50;99.90
13697;DHT22;6920;50.080;8.226;2023-03-14T06:02:34;10.50;99.90
13697;DHT22;6920;50.080;8.226;2023-03-14T06:05:01;10.50;99.90
13697;DHT22;6920;50.080;8.226;2023-03-14T06:07:28;10.50;99.90
13697;DHT22;6920;50.080;8.226;2023-03-14T06:09:55;10.40;99.90
13697;DHT22;6920;50.080;8.226;2023-03-14T06:12:25;10.40;99.90
13697;DHT22;6920;50.080;8.226;2023-03-14T06:14:52;10.40;99.90
13697;DHT22;6920;50.080;8.226;2023-03-14T06:17:19;10.40;99.90
13697;DHT22;6920;50.080;8.226;2023-03-14T06:19:46;10.40;99.90
13697;DHT22;6920;50.080;8.226;2023-03-14T06:22:13;10.40;99.90
13697;DHT22;6920;50.080;8.226;2023-03-14T06:24:41;10.40;99.90
13697;DHT22;6920;50.080;8.226;2023-03-14T06:27:10;10.40;99.90
13697;DHT22;6920;50.080;8.226;2023-03-14T06:29:40;10.40;99.90
13697;DHT22;6920;50.080;8.226;2023-03-14T06:32:08;10.40;99.90
13697;DHT22;6920;50.080;8.226;2023-03-14T06:34:39;10.40;99.90
13697;DHT22;6920;50.080;8.226;2023-03-14T06:37:08;10.40;99.90
13697;DHT22;6920;50.080;8.226;2023-03-14T06:39:38;10.40;99.90
13697;DHT22;6920;50.080;8.226;2023-03-14T06:42:05;10.40;99.90
13697;DHT22;6920;50.080;8.226;2023-03-14T06:44:32;10.40;99.90
13697;DHT22;6920;50.080;8.226;2023-03-14T06:47:01;10.40;99.90
13697;DHT22;6920;50.080;8.226;2023-03-14T06:49:28;10.40;99.90
13697;DHT22;6920;50.080;8.226;2023-03-14T06:51:55;10.30;99.90
13697;DHT22;6920;50.080;8.226;2023-03-14T06:54:22;10.40;99.90
13697;DHT22;6920;50.080;8.226;2023-03-14T06:56:49;10.40;99.90
13697;DHT22;6920;50.080;8.226;2023-03-14T06:59:17;10.40;99.90
13697;DHT22;6920;50.080;8.226;2023-03-14T07:01:44;10.40;99.90
13697;DHT22;6920;50.080;8.226;2023-03-14T07:04:12;10.40;99.90
13697;DHT22;6920;50.080;8.226;2023-03-14T07:06:39;10.50;99.90
13697;DHT22;6920;50.080;8.226;2023-03-14T07:09:10;10.50;99.90
13697;DHT22;6920;50.080;8.226;2023-03-14T07:11:39;10.50;99.90
13697;DHT22;6920;50.080;8.226;2023-03-14T07:14:09;10.50;99.90
13697;DHT22;6920;50.080;8.226;2023-03-14T07:16:38;10.50;99.90
13697;DHT22;6920;50.080;8.226;2023-03-14T07:19:05;10.50;99.90
13697;DHT22;6920;50.080;8.226;2023-03-14T07:21:33;10.60;99.90
13697;DHT22;6920;50.080;8.226;2023-03-14T07:24:01;10.60;99.90
13697;DHT22;6920;50.080;8.226;2023-03-14T07:26:28;10.60;99.90
13697;DHT22;6920;50.080;8.226;2023-03-14T07:28:55;10.70;99.90
13697;DHT22;6920;50.080;8.226;2023-03-14T07:31:22;10.70;99.90
13697;DHT22;6920;50.080;8.226;2023-03-14T07:33:49;10.70;99.90
13697;DHT22;6920;50.080;8.226;2023-03-14T07:36:16;10.70;99.90
13697;DHT22;6920;50.080;8.226;2023-03-14T07:38:45;10.70;99.90
13697;DHT22;6920;50.080;8.226;2023-03-14T07:41:12;10.70;99.90
13697;DHT22;6920;50.080;8.226;2023-03-14T07:43:40;10.70;99.90
13697;DHT22;6920;50.080;8.226;2023-03-14T07:46:08;10.70;99.90
13697;DHT22;6920;50.080;8.226;2023-03-14T07:48:35;10.70;99.90
13697;DHT22;6920;50.080;8.226;2023-03-14T07:51:02;10.70;99.90
13697;DHT22;6920;50.080;8.226;2023-03-14T07:53:29;10.80;99.90
13697;DHT22;6920;50.080;8.226;2023-03-14T07:55:58;10.80;99.90
13697;DHT22;6920;50.080;8.226;2023-03-14T07:58:25;10.80;99.90
13697;DHT22;6920;50.080;8.226;2023-03-14T08:00:53;10.70;99.90
13697;DHT22;6920;50.080;8.226;2023-03-14T08:03:20;10.70;99.90
13697;DHT22;6920;50.080;8.226;2023-03-14T08:05:47;10.70;99.90
13697;DHT22;6920;50.080;8.226;2023-03-14T08:08:15;10.80;99.90
13697;DHT22;6920;50.080;8.226;2023-03-14T08:10:42;10.80;99.90
13697;DHT22;6920;50.080;8.226;2023-03-14T08:13:11;10.90;99.90
13697;DHT22;6920;50.080;8.226;2023-03-14T08:15:38;10.90;99.90
13697;DHT22;6920;50.080;8.226;2023-03-14T08:18:06;10.90;99.90
13697;DHT22;6920;50.080;8.226;2023-03-14T08:20:33;10.90;99.90
13697;DHT22;6920;50.080;8.226;2023-03-14T08:23:01;11.00;99.90
13697;DHT22;6920;50.080;8.226;2023-03-14T08:25:28;10.90;99.90
13697;DHT22;6920;50.080;8.226;2023-03-14T08:27:56;11.00;99.90
13697;DHT22;6920;50.080;8.226;2023-03-14T08:30:25;11.20;99.90
13697;DHT22;6920;50.080;8.226;2023-03-14T08:32:52;11.10;99.90
13697;DHT22;6920;50.080;8.226;2023-03-14T08:35:19;11.10;99.90
13697;DHT22;6920;50.080;8.226;2023-03-14T08:37:46;11.10;99.90
13697;DHT22;6920;50.080;8.226;2023-03-14T08:40:14;11.20;99.90
13697;DHT22;6920;50.080;8.226;2023-03-14T08:42:42;11.20;99.90
13697;DHT22;6920;50.080;8.226;2023-03-14T08:45:11;11.10;99.90
13697;DHT22;6920;50.080;8.226;2023-03-14T08:47:40;11.10;99.90
13697;DHT22;6920;50.080;8.226;2023-03-14T08:50:09;11.10;99.90
13697;DHT22;6920;50.080;8.226;2023-03-14T08:52:36;11.10;99.90
13697;DHT22;6920;50.080;8.226;2023-03-14T08:55:07;11.20;99.90
13697;DHT22;6920;50.080;8.226;2023-03-14T08:57:34;11.10;99.90
13697;DHT22;6920;50.080;8.226;2023-03-14T09:00:04;11.10;99.90
13697;DHT22;6920;50.080;8.226;2023-03-14T09:02:36;11.20;99.90
13697;DHT22;6920;50.080;8.226;2023-03-14T09:05:05;11.10;99.90
13697;DHT22;6920;50.080;8.226;2023-03-14T09:07:32;11.00;99.90
13697;DHT22;6920;50.080;8.226;2023-03-14T09:09:59;11.00;99.90
13697;DHT22;6920;50.080;8.226;2023-03-14T09:12:26;11.00;99.90
13697;DHT22;6920;50.080;8.226;2023-03-14T09:14:54;10.90;99.90
13697;DHT22;6920;50.080;8.226;2023-03-14T09:17:21;10.90;99.90
13697;DHT22;6920;50.080;8.226;2023-03-14T09:19:48;10.90;99.90
13697;DHT22;6920;50.080;8.226;2023-03-14T09:22:17;11.00;99.90
13697;DHT22;6920;50.080;8.226;2023-03-14T09:24:44;11.00;99.90
13697;DHT22;6920;50.080;8.226;2023-03-14T09:27:11;11.00;99.90
13697;DHT22;6920;50.080;8.226;2023-03-14T09:29:38;11.00;99.90
13697;DHT22;6920;50.080;8.226;2023-03-14T09:32:05;11.10;99.90
13697;DHT22;6920;50.080;8.226;2023-03-14T09:34:33;11.10;99.90
13697;DHT22;6920;50.080;8.226;2023-03-14T09:37:00;11.20;99.90
13697;DHT22;6920;50.080;8.226;2023-03-14T09:39:28;11.20;99.90
13697;DHT22;6920;50.080;8.226;2023-03-14T09:41:57;11.20;99.90
13697;DHT22;6920;50.080;8.226;2023-03-14T09:44:27;11.20;99.90
13697;DHT22;6920;50.080;8.226;2023-03-14T09:46:58;11.20;99.90
13697;DHT22;6920;50.080;8.226;2023-03-14T09:49:30;11.20;99.90
13697;DHT22;6920;50.080;8.226;2023-03-14T09:52:00;11.20;99.90
13697;DHT22;6920;50.080;8.226;2023-03-14T09:54:34;11.30;99.90
13697;DHT22;6920;50.080;8.226;2023-03-14T09:57:03;11.30;99.90
13697;DHT22;6920;50.080;8.226;2023-03-14T09:59:30;11.20;99.90
13697;DHT22;6920;50.080;8.226;2023-03-14T10:02:00;11.30;99.90
13697;DHT22;6920;50.080;8.226;2023-03-14T10:04:29;11.30;99.90
13697;DHT22;6920;50.080;8.226;2023-03-14T10:06:58;11.40;99.90
13697;DHT22;6920;50.080;8.226;2023-03-14T10:09:25;11.40;99.90
13697;DHT22;6920;50.080;8.226;2023-03-14T10:11:56;11.50;99.90
13697;DHT22;6920;50.080;8.226;2023-03-14T10:14:30;11.50;99.90
13697;DHT22;6920;50.080;8.226;2023-03-14T10:17:05;11.50;99.90
13697;DHT22;6920;50.080;8.226;2023-03-14T10:19:34;11.50;99.90
13697;DHT22;6920;50.080;8.226;2023-03-14T10:22:04;11.40;99.90
13697;DHT22;6920;50.080;8.226;2023-03-14T10:24:33;11.40;99.90
13697;DHT22;6920;50.080;8.226;2023-03-14T10:27:05;11.40;99.90
13697;DHT22;6920;50.080;8.226;2023-03-14T10:29:34;11.50;99.90
13697;DHT22;6920;50.080;8.226;2023-03-14T10:32:04;11.50;99.90
13697;DHT22;6920;50.080;8.226;2023-03-14T10:34:35;11.50;99.90
13697;DHT22;6920;50.080;8.226;2023-03-14T10:37:07;11.50;99.90
13697;DHT22;6920;50.080;8.226;2023-03-14T10:39:42;11.60;99.90
13697;DHT22;6920;50.080;8.226;2023-03-14T10:42:19;11.70;99.90
13697;DHT22;6920;50.080;8.226;2023-03-14T10:44:51;11.60;99.90
13697;DHT22;6920;50.080;8.226;2023-03-14T10:47:24;11.60;99.90
13697;DHT22;6920;50.080;8.226;2023-03-14T10:49:52;11.50;99.90
13697;DHT22;6920;50.080;8.226;2023-03-14T10:52:21;11.30;99.90
13697;DHT22;6920;50.080;8.226;2023-03-14T10:54:54;11.20;99.90
13697;DHT22;6920;50.080;8.226;2023-03-14T10:57:24;11.20;99.90
13697;DHT22;6920;50.080;8.226;2023-03-14T10:59:52;11.10;99.90
13697;DHT22;6920;50.080;8.226;2023-03-14T11:05:37;11.20;99.90
13697;DHT22;6920;50.080;8.226;2023-03-14T11:08:14;11.30;99.90
13697;DHT22;6920;50.080;8.226;2023-03-14T11:10:50;11.30;99.90
13697;DHT22;6920;50.080;8.226;2023-03-14T11:13:25;11.40;99.90
13697;DHT22;6920;50.080;8.226;2023-03-14T11:16:06;11.50;99.90
13697;DHT22;6920;50.080;8.226;2023-03-14T11:19:02;11.60;99.90
13697;DHT22;6920;50.080;8.226;2023-03-14T11:21:37;11.70;99.90
13697;DHT22;6920;50.080;8.226;2023-03-14T11:24:27;11.80;99.90
13697;DHT22;6920;50.080;8.226;2023-03-14T11:27:00;11.80;99.90
13697;DHT22;6920;50.080;8.226;2023-03-14T11:29:39;11.80;99.90
13697;DHT22;6920;50.080;8.226;2023-03-14T11:32:32;11.80;99.90
13697;DHT22;6920;50.080;8.226;2023-03-14T11:35:04;11.70;99.90
13697;DHT22;6920;50.080;8.226;2023-03-14T11:37:43;11.70;99.90
13697;DHT22;6920;50.080;8.226;2023-03-14T11:40:14;11.60;99.90
13697;DHT22;6920;50.080;8.226;2023-03-14T11:42:49;11.60;99.90
13697;DHT22;6920;50.080;8.226;2023-03-14T11:45:25;11.50;99.90
13697;DHT22;6920;50.080;8.226;2023-03-14T11:48:15;11.40;99.90
13697;DHT22;6920;50.080;8.226;2023-03-14T11:50:48;11.50;99.90
13697;DHT22;6920;50.080;8.226;2023-03-14T11:53:21;11.10;99.90
13697;DHT22;6920;50.080;8.226;2023-03-14T11:55:49;10.60;99.90
13697;DHT22;6920;50.080;8.226;2023-03-14T11:58:20;10.10;99.90
13697;DHT22;6920;50.080;8.226;2023-03-14T12:00:51;10.00;99.90
13697;DHT22;6920;50.080;8.226;2023-03-14T12:03:25;9.90;99.90
13697;DHT22;6920;50.080;8.226;2023-03-14T12:06:13;9.80;99.90
13697;DHT22;6920;50.080;8.226;2023-03-14T12:08:52;9.80;99.90
13697;DHT22;6920;50.080;8.226;2023-03-14T12:11:33;9.80;99.90
13697;DHT22;6920;50.080;8.226;2023-03-14T12:14:02;9.80;99.90
13697;DHT22;6920;50.080;8.226;2023-03-14T12:16:36;9.80;99.90
13697;DHT22;6920;50.080;8.226;2023-03-14T12:19:32;9.80;99.90
13697;DHT22;6920;50.080;8.226;2023-03-14T12:22:20;9.70;99.90
13697;DHT22;6920;50.080;8.226;2023-03-14T12:24:50;9.80;99.90
13697;DHT22;6920;50.080;8.226;2023-03-14T12:27:45;10.20;99.90
13697;DHT22;6920;50.080;8.226;2023-03-14T12:30:24;10.20;99.90
13697;DHT22;6920;50.080;8.226;2023-03-14T12:33:29;9.90;99.90
13697;DHT22;6920;50.080;8.226;2023-03-14T12:36:15;9.90;99.90
13697;DHT22;6920;50.080;8.226;2023-03-14T12:39:06;9.70;99.90
13697;DHT22;6920;50.080;8.226;2023-03-14T12:41:41;9.60;99.90
13697;DHT22;6920;50.080;8.226;2023-03-14T12:44:46;9.50;99.90
13697;DHT22;6920;50.080;8.226;2023-03-14T12:50:34;9.40;99.90
13697;DHT22;6920;50.080;8.226;2023-03-14T12:56:17;9.40;99.90
13697;DHT22;6920;50.080;8.226;2023-03-14T12:59:19;9.50;99.90
13697;DHT22;6920;50.080;8.226;2023-03-14T13:02:17;9.30;99.90
13697;DHT22;6920;50.080;8.226;2023-03-14T13:04:49;9.20;99.90
13697;DHT22;6920;50.080;8.226;2023-03-14T13:10:19;9.30;99.90
13697;DHT22;6920;50.080;8.226;2023-03-14T13:12:54;9.30;99.90
13697;DHT22;6920;50.080;8.226;2023-03-14T13:15:31;9.30;99.90
13697;DHT22;6920;50.080;8.226;2023-03-14T13:18:02;9.40;99.90
13697;DHT22;6920;50.080;8.226;2023-03-14T13:20:32;9.50;99.90
13697;DHT22;6920;50.080;8.226;2023-03-14T13:23:01;9.50;99.90
13697;DHT22;6920;50.080;8.226;2023-03-14T13:25:43;9.60;99.90
13697;DHT22;6920;50.080;8.226;2023-03-14T13:28:14;10.00;99.90
13697;DHT22;6920;50.080;8.226;2023-03-14T13:30:47;10.20;99.90
13697;DHT22;6920;50.080;8.226;2023-03-14T13:33:17;10.70;99.90
13697;DHT22;6920;50.080;8.226;2023-03-14T13:35:46;11.10;99.90
13697;DHT22;6920;50.080;8.226;2023-03-14T13:38:18;11.20;99.90
13697;DHT22;6920;50.080;8.226;2023-03-14T13:40:51;11.50;99.90
13697;DHT22;6920;50.080;8.226;2023-03-14T13:43:25;11.20;99.90
13697;DHT22;6920;50.080;8.226;2023-03-14T13:45:56;10.90;99.90
13697;DHT22;6920;50.080;8.226;2023-03-14T13:48:27;10.60;99.90
13697;DHT22;6920;50.080;8.226;2023-03-14T13:50:59;10.50;99.90
13697;DHT22;6920;50.080;8.226;2023-03-14T13:53:28;10.20;99.90
13697;DHT22;6920;50.080;8.226;2023-03-14T13:56:01;10.00;99.90
13697;DHT22;6920;50.080;8.226;2023-03-14T13:58:30;10.00;99.90
13697;DHT22;6920;50.080;8.226;2023-03-14T14:01:23;10.00;99.90
13697;DHT22;6920;50.080;8.226;2023-03-14T14:03:54;9.90;99.90
13697;DHT22;6920;50.080;8.226;2023-03-14T14:06:29;9.90;99.90
13697;DHT22;6920;50.080;8.226;2023-03-14T14:08:59;9.80;99.90
13697;DHT22;6920;50.080;8.226;2023-03-14T14:11:40;9.80;99.90
13697;DHT22;6920;50.080;8.226;2023-03-14T14:14:13;9.60;99.90
13697;DHT22;6920;50.080;8.226;2023-03-14T14:16:43;9.50;99.90
13697;DHT22;6920;50.080;8.226;2023-03-14T14:19:13;9.50;99.90
13697;DHT22;6920;50.080;8.226;2023-03-14T14:21:42;9.60;99.90
13697;DHT22;6920;50.080;8.226;2023-03-14T14:24:12;9.60;99.90
13697;DHT22;6920;50.080;8.226;2023-03-14T14:26:47;9.50;99.90
13697;DHT22;6920;50.080;8.226;2023-03-14T14:29:25;9.40;99.90
13697;DHT22;6920;50.080;8.226;2023-03-14T14:32:02;9.10;99.90
13697;DHT22;6920;50.080;8.226;2023-03-14T14:34:39;8.70;99.90
13697;DHT22;6920;50.080;8.226;2023-03-14T14:37:31;8.10;99.90
13697;DHT22;6920;50.080;8.226;2023-03-14T14:40:07;7.50;99.90
13697;DHT22;6920;50.080;8.226;2023-03-14T14:42:40;7.20;99.90
13697;DHT22;6920;50.080;8.226;2023-03-14T14:45:14;7.00;99.90
13697;DHT22;6920;50.080;8.226;2023-03-14T14:47:51;6.80;99.90
13697;DHT22;6920;50.080;8.226;2023-03-14T14:50:30;6.90;99.90
13697;DHT22;6920;50.080;8.226;2023-03-14T14:52:58;6.90;99.90
13697;DHT22;6920;50.080;8.226;2023-03-14T14:55:31;7.10;99.90
13697;DHT22;6920;50.080;8.226;2023-03-14T14:58:18;6.90;99.90
13697;DHT22;6920;50.080;8.226;2023-03-14T15:00:56;6.90;99.90
13697;DHT22;6920;50.080;8.226;2023-03-14T15:03:27;6.90;99.90
13697;DHT22;6920;50.080;8.226;2023-03-14T15:05:56;6.80;99.90
13697;DHT22;6920;50.080;8.226;2023-03-14T15:08:26;6.70;99.90
13697;DHT22;6920;50.080;8.226;2023-03-14T15:10:53;6.60;99.90
13697;DHT22;6920;50.080;8.226;2023-03-14T15:13:22;6.60;99.90
13697;DHT22;6920;50.080;8.226;2023-03-14T15:15:50;6.50;99.90
13697;DHT22;6920;50.080;8.226;2023-03-14T15:18:22;6.50;99.90
13697;DHT22;6920;50.080;8.226;2023-03-14T15:20:52;6.50;99.90
13697;DHT22;6920;50.080;8.226;2023-03-14T15:23:20;6.60;99.90
13697;DHT22;6920;50.080;8.226;2023-03-14T15:25:49;6.70;99.90
13697;DHT22;6920;50.080;8.226;2023-03-14T15:28:18;6.70;99.90
13697;DHT22;6920;50.080;8.226;2023-03-14T15:30:48;6.70;99.90
13697;DHT22;6920;50.080;8.226;2023-03-14T15:33:16;6.70;99.90
13697;DHT22;6920;50.080;8.226;2023-03-14T15:35:44;6.70;99.90
13697;DHT22;6920;50.080;8.226;2023-03-14T15:38:12;6.60;99.90
13697;DHT22;6920;50.080;8.226;2023-03-14T15:40:40;6.60;99.90
13697;DHT22;6920;50.080;8.226;2023-03-14T15:43:08;6.40;99.90
13697;DHT22;6920;50.080;8.226;2023-03-14T15:45:39;6.40;99.90
13697;DHT22;6920;50.080;8.226;2023-03-14T15:48:13;6.40;99.90
13697;DHT22;6920;50.080;8.226;2023-03-14T15:50:43;6.30;99.90
13697;DHT22;6920;50.080;8.226;2023-03-14T15:53:12;6.10;99.90
13697;DHT22;6920;50.080;8.226;2023-03-14T15:55:44;6.00;99.90
13697;DHT22;6920;50.080;8.226;2023-03-14T15:58:16;6.00;99.90
13697;DHT22;6920;50.080;8.226;2023-03-14T16:00:43;6.00;99.90
13697;DHT22;6920;50.080;8.226;2023-03-14T16:03:12;5.90;99.90
13697;DHT22;6920;50.080;8.226;2023-03-14T16:05:40;6.00;99.90
13697;DHT22;6920;50.080;8.226;2023-03-14T16:08:08;5.90;99.90
13697;DHT22;6920;50.080;8.226;2023-03-14T16:10:36;6.00;99.90
13697;DHT22;6920;50.080;8.226;2023-03-14T16:13:13;5.90;99.90
13697;DHT22;6920;50.080;8.226;2023-03-14T16:15:40;5.90;99.90
13697;DHT22;6920;50.080;8.226;2023-03-14T16:18:07;5.80;99.90
13697;DHT22;6920;50.080;8.226;2023-03-14T16:20:40;5.90;99.90
13697;DHT22;6920;50.080;8.226;2023-03-14T16:23:11;5.80;99.90
13697;DHT22;6920;50.080;8.226;2023-03-14T16:25:44;5.80;99.90
13697;DHT22;6920;50.080;8.226;2023-03-14T16:28:11;5.90;99.90